Terminal Aerodrome Forecast
Issued by NWS

Home | Current Version | Previous Version | Text Only | Print | Product List | Glossary On
Versions: 1 2 3 4 5 6 7 8 9 10 11 12 13 14 15
831
FTUS45 KRIW 252001 AAA
TAFJAC
TAF AMD
KJAC 252001Z 2520/2618 34010KT P6SM VCSH SCT035 BKN060
      TEMPO 2520/2523 6SM -SHRASN BKN035
     FM260100 36006KT P6SM VCSH SCT050
     FM261200 20006KT P6SM VCSH BKN030
      AMD LTD TO CLD VIS AND WIND=

USA.gov is the U.S. government's official web portal to all federal, state and local government web resources and services.